createdAt,value
2019-05-09T00:00:23.308Z,2.60
2019-05-09T00:01:23.514Z,2.60
2019-05-09T00:02:24.369Z,2.60
2019-05-09T00:03:24.136Z,2.90
2019-05-09T00:04:23.155Z,2.70
2019-05-09T00:05:25.311Z,2.80
2019-05-09T00:06:23.898Z,2.50
2019-05-09T00:07:23.336Z,2.40
2019-05-09T00:08:23.211Z,2.70
2019-05-09T00:09:23.181Z,2.80
2019-05-09T00:10:38.051Z,2.40
2019-05-09T00:11:24.621Z,2.70
2019-05-09T00:12:23.441Z,2.80
2019-05-09T00:13:23.772Z,2.80
2019-05-09T00:14:23.861Z,2.50
2019-05-09T00:15:24.180Z,1.80
2019-05-09T00:16:23.477Z,1.80
2019-05-09T00:17:23.275Z,2.00
2019-05-09T00:18:23.294Z,2.10
2019-05-09T00:19:23.734Z,2.20
2019-05-09T00:20:23.858Z,1.80
2019-05-09T00:21:23.918Z,2.00
2019-05-09T00:22:24.001Z,2.20
2019-05-09T00:23:23.956Z,2.20
2019-05-09T00:24:23.833Z,2.30
2019-05-09T00:25:23.599Z,1.90
2019-05-09T00:26:23.544Z,1.70
2019-05-09T00:27:23.138Z,2.20
2019-05-09T00:28:23.610Z,1.80
2019-05-09T00:29:24.327Z,1.80
2019-05-09T00:30:23.171Z,1.70
2019-05-09T00:31:23.890Z,1.80
2019-05-09T00:32:23.892Z,1.80
2019-05-09T00:33:23.555Z,1.70
2019-05-09T00:34:23.438Z,1.90
2019-05-09T00:35:23.340Z,1.50
2019-05-09T00:36:23.202Z,1.80
2019-05-09T00:37:23.851Z,1.60
2019-05-09T00:38:23.967Z,1.70
2019-05-09T00:39:23.658Z,1.70
2019-05-09T00:40:23.833Z,1.90
2019-05-09T00:41:23.890Z,1.90
2019-05-09T00:42:24.040Z,1.70
2019-05-09T00:43:23.767Z,1.80
2019-05-09T00:44:23.283Z,1.80
2019-05-09T00:45:23.879Z,2.00
2019-05-09T00:46:23.628Z,1.80
2019-05-09T00:47:23.975Z,2.10
2019-05-09T00:48:23.040Z,1.90
2019-05-09T00:49:23.563Z,2.40
2019-05-09T00:50:23.536Z,2.10
2019-05-09T00:51:23.354Z,2.20
2019-05-09T00:52:23.498Z,2.00
2019-05-09T00:53:23.249Z,2.00
2019-05-09T00:54:24.076Z,2.20
2019-05-09T00:55:23.940Z,2.20
2019-05-09T00:56:24.031Z,1.90
2019-05-09T00:57:23.031Z,2.10
2019-05-09T00:58:24.110Z,2.20
2019-05-09T00:59:24.105Z,2.30
2019-05-09T01:00:24.119Z,2.00
2019-05-09T01:01:23.990Z,2.40
2019-05-09T01:02:23.606Z,2.40
2019-05-09T01:03:23.423Z,2.40
2019-05-09T01:04:24.132Z,2.00
2019-05-09T01:05:23.895Z,2.20
2019-05-09T01:06:24.027Z,1.70
2019-05-09T01:07:23.276Z,1.90
2019-05-09T01:08:24.071Z,1.40
2019-05-09T01:09:24.019Z,1.80
2019-05-09T01:10:23.735Z,1.50
2019-05-09T01:11:24.269Z,1.60
2019-05-09T01:12:23.518Z,1.40
2019-05-09T01:13:23.168Z,1.60
2019-05-09T01:14:23.481Z,1.90
2019-05-09T01:15:23.901Z,1.80
2019-05-09T01:16:23.911Z,1.80
2019-05-09T01:17:23.938Z,1.50
2019-05-09T01:18:23.711Z,1.50
2019-05-09T01:19:23.330Z,1.50
2019-05-09T01:20:24.012Z,1.30
2019-05-09T01:21:24.010Z,1.30
2019-05-09T01:22:23.623Z,1.30
2019-05-09T01:23:23.411Z,1.20
2019-05-09T01:24:23.281Z,1.10
2019-05-09T01:25:23.857Z,1.30
2019-05-09T01:26:23.984Z,1.40
2019-05-09T01:27:23.325Z,1.30
2019-05-09T01:28:23.196Z,1.20
2019-05-09T01:29:23.076Z,1.20
2019-05-09T01:30:24.029Z,1.30
2019-05-09T01:31:23.784Z,1.20
2019-05-09T01:32:23.698Z,1.00
2019-05-09T01:33:24.058Z,1.00
2019-05-09T01:34:23.823Z,1.10
2019-05-09T01:35:23.304Z,1.10
2019-05-09T01:36:23.491Z,1.30
2019-05-09T01:37:23.739Z,1.00
2019-05-09T01:38:23.225Z,1.10
2019-05-09T01:39:24.062Z,1.00
2019-05-09T01:40:23.797Z,1.10
2019-05-09T01:41:27.840Z,1.10
2019-05-09T01:42:23.322Z,0.90
2019-05-09T01:43:24.236Z,1.10
2019-05-09T01:44:23.817Z,1.20
2019-05-09T01:45:23.620Z,1.60
2019-05-09T01:46:23.570Z,1.50
2019-05-09T01:47:23.511Z,1.50
2019-05-09T01:48:23.440Z,1.50
2019-05-09T01:49:23.301Z,1.30
2019-05-09T01:50:23.321Z,1.30
2019-05-09T01:51:23.365Z,1.20
2019-05-09T01:52:23.218Z,1.20
2019-05-09T01:53:23.803Z,1.30
2019-05-09T01:54:23.592Z,1.20
2019-05-09T01:55:23.403Z,1.90
2019-05-09T01:56:23.531Z,1.60
2019-05-09T01:57:23.267Z,2.10
2019-05-09T01:58:23.264Z,2.00
2019-05-09T01:59:23.653Z,1.50
2019-05-09T02:00:23.773Z,1.50
2019-05-09T02:01:23.825Z,1.60
2019-05-09T02:02:23.434Z,1.20
2019-05-09T02:03:23.360Z,1.40
2019-05-09T02:04:21.621Z,1.40
2019-05-09T02:05:23.949Z,1.30
2019-05-09T02:06:24.115Z,1.30
2019-05-09T02:07:23.651Z,1.20
2019-05-09T02:08:23.491Z,1.30
2019-05-09T02:09:23.449Z,1.30
2019-05-09T02:10:23.250Z,1.20
2019-05-09T02:11:23.639Z,1.00
2019-05-09T02:12:21.584Z,1.00
2019-05-09T02:13:23.113Z,1.90
2019-05-09T02:14:21.532Z,13.30
2019-05-09T02:15:23.557Z,2.70
2019-05-09T02:16:23.338Z,999.90
2019-05-09T02:17:23.229Z,763.40
2019-05-09T02:18:23.097Z,867.20
2019-05-09T02:19:21.480Z,311.40
2019-05-09T02:20:24.037Z,24.50
2019-05-09T02:21:23.831Z,4.70
2019-05-09T02:22:23.158Z,4.60
2019-05-09T02:23:22.856Z,4.00
2019-05-09T02:24:23.290Z,1.80
2019-05-09T02:25:21.410Z,1.90
2019-05-09T02:26:23.421Z,2.20
2019-05-09T02:27:21.388Z,1.60
2019-05-09T02:28:23.411Z,1.70
2019-05-09T02:29:23.131Z,1.50
2019-05-09T02:30:24.945Z,1.30
2019-05-09T02:31:24.163Z,1.50
2019-05-09T02:32:23.753Z,1.40
2019-05-09T02:33:21.339Z,2.70
2019-05-09T02:34:24.553Z,3.20
2019-05-09T02:35:21.324Z,14.20
2019-05-09T02:36:21.318Z,6.00
2019-05-09T02:37:21.311Z,2.50
2019-05-09T02:38:21.300Z,1.80
2019-05-09T02:39:21.290Z,1.40
2019-05-09T02:40:21.258Z,1.20
2019-05-09T02:41:21.300Z,1.40
2019-05-09T02:42:21.255Z,1.50
2019-05-09T02:43:21.292Z,1.30
2019-05-09T02:44:21.222Z,1.50
2019-05-09T02:45:21.214Z,1.80
2019-05-09T02:46:21.224Z,1.70
2019-05-09T02:47:21.200Z,1.60
2019-05-09T02:48:21.212Z,1.50
2019-05-09T02:49:21.173Z,1.30
2019-05-09T02:50:21.172Z,1.40
2019-05-09T02:51:21.168Z,1.50
2019-05-09T02:52:21.147Z,1.30
2019-05-09T02:53:21.162Z,1.60
2019-05-09T02:54:21.129Z,1.70
2019-05-09T02:55:21.139Z,1.70
2019-05-09T02:56:21.141Z,1.50
2019-05-09T02:57:21.151Z,1.40
2019-05-09T02:58:21.106Z,2.20
2019-05-09T02:59:21.103Z,1.40
2019-05-09T03:00:21.089Z,1.50
2019-05-09T03:01:21.062Z,1.50
2019-05-09T03:02:21.055Z,1.80
2019-05-09T03:03:21.059Z,1.60
2019-05-09T03:04:21.067Z,1.60
2019-05-09T03:05:21.040Z,1.60
2019-05-09T03:06:21.023Z,1.50
2019-05-09T03:07:21.020Z,1.80
2019-05-09T03:08:21.022Z,1.40
2019-05-09T03:09:20.988Z,1.70
2019-05-09T03:10:20.961Z,1.50
2019-05-09T03:11:20.958Z,1.50
2019-05-09T03:12:30.515Z,1.90
2019-05-09T03:13:20.951Z,1.60
2019-05-09T03:14:20.928Z,2.00
2019-05-09T03:15:20.932Z,1.80
2019-05-09T03:16:20.941Z,1.70
2019-05-09T03:17:20.904Z,1.80
2019-05-09T03:18:20.914Z,2.30
2019-05-09T03:19:20.884Z,2.30
2019-05-09T03:20:20.912Z,2.10
2019-05-09T03:21:20.916Z,2.30
2019-05-09T03:22:20.844Z,1.70
2019-05-09T03:23:20.850Z,2.20
2019-05-09T03:24:20.885Z,2.10
2019-05-09T03:25:20.854Z,2.30
2019-05-09T03:26:20.868Z,2.10
2019-05-09T03:27:20.797Z,2.20
2019-05-09T03:28:20.792Z,2.40
2019-05-09T03:29:20.803Z,2.30
2019-05-09T03:30:21.073Z,2.40
2019-05-09T03:31:20.775Z,2.90
2019-05-09T03:32:20.769Z,2.90
2019-05-09T03:33:20.725Z,2.60
2019-05-09T03:34:20.743Z,3.00
2019-05-09T03:35:20.733Z,2.80
2019-05-09T03:36:20.729Z,3.00
2019-05-09T03:37:20.737Z,3.10
2019-05-09T03:38:20.709Z,3.00
2019-05-09T03:39:20.721Z,3.10
2019-05-09T03:40:20.714Z,3.20
2019-05-09T03:41:20.712Z,2.90
2019-05-09T03:42:23.023Z,2.60
2019-05-09T03:43:20.641Z,3.20
2019-05-09T03:44:20.636Z,2.50
2019-05-09T03:45:20.619Z,3.50
2019-05-09T03:46:20.641Z,3.20
2019-05-09T03:47:20.592Z,2.70
2019-05-09T03:48:20.639Z,2.80
2019-05-09T03:49:20.585Z,3.50
2019-05-09T03:50:20.623Z,3.00
2019-05-09T03:51:20.562Z,3.20
2019-05-09T03:52:20.562Z,3.20
2019-05-09T03:53:20.584Z,2.50
2019-05-09T03:54:20.563Z,3.10
2019-05-09T03:55:20.553Z,3.00
2019-05-09T03:56:20.504Z,2.40
2019-05-09T03:57:20.497Z,2.80
2019-05-09T03:58:20.487Z,2.80
2019-05-09T03:59:20.474Z,2.70
2019-05-09T04:00:20.473Z,3.10
2019-05-09T04:01:20.579Z,2.90
2019-05-09T04:02:20.480Z,2.60
2019-05-09T04:03:20.481Z,2.40
2019-05-09T04:04:20.479Z,2.70
2019-05-09T04:05:20.448Z,2.60
2019-05-09T04:06:20.458Z,2.50
2019-05-09T04:07:20.564Z,2.80
2019-05-09T04:08:20.447Z,2.50
2019-05-09T04:09:20.381Z,2.00
2019-05-09T04:10:20.384Z,2.10
2019-05-09T04:11:20.358Z,1.90
2019-05-09T04:12:20.514Z,1.70
2019-05-09T04:13:20.355Z,1.90
2019-05-09T04:14:21.590Z,2.00
2019-05-09T04:15:20.340Z,1.70
2019-05-09T04:16:20.311Z,1.60
2019-05-09T04:17:20.459Z,1.90
2019-05-09T04:18:20.303Z,1.80
2019-05-09T04:19:20.284Z,1.70
2019-05-09T04:20:20.300Z,1.60
2019-05-09T04:21:20.243Z,1.60
2019-05-09T04:22:20.370Z,1.60
2019-05-09T04:23:20.240Z,1.30
2019-05-09T04:24:20.229Z,1.80
2019-05-09T04:25:20.225Z,1.70
2019-05-09T04:26:20.201Z,1.30
2019-05-09T04:27:20.354Z,1.90
2019-05-09T04:28:20.187Z,1.50
2019-05-09T04:29:20.218Z,1.50
2019-05-09T04:30:20.177Z,1.60
2019-05-09T04:31:20.172Z,1.80
2019-05-09T04:32:20.150Z,1.70
2019-05-09T04:33:20.227Z,1.60
2019-05-09T04:34:20.139Z,1.60
2019-05-09T04:35:20.116Z,1.40
2019-05-09T04:36:20.122Z,1.50
2019-05-09T04:37:20.092Z,1.60
2019-05-09T04:38:20.202Z,1.70
2019-05-09T04:39:23.575Z,1.50
2019-05-09T04:40:20.071Z,1.50
2019-05-09T04:41:24.017Z,1.30
2019-05-09T04:42:20.064Z,1.60
2019-05-09T04:43:27.202Z,1.60
2019-05-09T04:44:21.740Z,1.40
2019-05-09T04:45:20.025Z,1.30
2019-05-09T04:46:24.128Z,1.40
2019-05-09T04:47:20.002Z,1.60
2019-05-09T04:48:23.901Z,1.60
2019-05-09T04:49:20.035Z,1.50
2019-05-09T04:50:23.502Z,1.40
2019-05-09T04:51:19.951Z,1.50
2019-05-09T04:52:19.950Z,1.50
2019-05-09T04:53:19.960Z,1.90
2019-05-09T04:54:19.947Z,1.60
2019-05-09T04:55:19.939Z,1.50
2019-05-09T04:56:19.909Z,1.50
2019-05-09T04:57:19.892Z,1.50
2019-05-09T04:58:19.878Z,1.50
2019-05-09T04:59:19.892Z,1.60
2019-05-09T05:00:19.874Z,1.70
2019-05-09T05:01:19.869Z,1.40
2019-05-09T05:02:19.828Z,1.40
2019-05-09T05:03:19.845Z,1.90
2019-05-09T05:04:19.842Z,1.60
2019-05-09T05:05:19.797Z,1.40
2019-05-09T05:06:20.745Z,1.50
2019-05-09T05:07:19.796Z,1.60
2019-05-09T05:08:19.785Z,1.50
2019-05-09T05:09:21.069Z,1.50
2019-05-09T05:10:19.777Z,1.40
2019-05-09T05:11:19.780Z,1.50
2019-05-09T05:12:19.757Z,1.90
2019-05-09T05:13:26.505Z,1.40
2019-05-09T05:14:19.747Z,1.50
2019-05-09T05:15:20.524Z,1.70
2019-05-09T05:16:19.711Z,1.60
2019-05-09T05:17:19.744Z,1.50
2019-05-09T05:18:20.278Z,1.60
2019-05-09T05:19:19.687Z,1.70
2019-05-09T05:20:19.661Z,1.70
2019-05-09T05:21:20.475Z,1.60
2019-05-09T05:22:19.652Z,1.60
2019-05-09T05:23:19.622Z,1.60
2019-05-09T05:24:19.638Z,1.80
2019-05-09T05:25:19.609Z,1.60
2019-05-09T05:26:19.618Z,1.80
2019-05-09T05:27:19.596Z,1.70
2019-05-09T05:28:19.572Z,1.70
2019-05-09T05:29:19.576Z,1.70
2019-05-09T05:30:19.567Z,1.50
2019-05-09T05:31:19.575Z,1.70
2019-05-09T05:32:19.536Z,1.60
2019-05-09T05:33:19.563Z,1.40
2019-05-09T05:34:19.537Z,1.30
2019-05-09T05:35:19.539Z,1.70
2019-05-09T05:36:19.490Z,1.60
2019-05-09T05:37:19.514Z,1.50
2019-05-09T05:38:19.502Z,1.50
2019-05-09T05:39:19.479Z,1.50
2019-05-09T05:40:19.472Z,1.40
2019-05-09T05:41:19.466Z,1.80
2019-05-09T05:42:22.107Z,1.50
2019-05-09T05:43:19.444Z,1.70
2019-05-09T05:44:19.476Z,1.50
2019-05-09T05:45:19.435Z,1.60
2019-05-09T05:46:19.419Z,1.50
2019-05-09T05:47:19.414Z,1.60
2019-05-09T05:48:19.394Z,1.60
2019-05-09T05:49:19.394Z,1.60
2019-05-09T05:50:19.383Z,1.60
2019-05-09T05:51:19.410Z,1.40
2019-05-09T05:52:19.376Z,1.60
2019-05-09T05:53:19.322Z,1.70
2019-05-09T05:54:19.317Z,1.80
2019-05-09T05:55:19.321Z,1.50
2019-05-09T05:56:19.350Z,1.50
2019-05-09T05:57:19.306Z,1.30
2019-05-09T05:58:19.270Z,1.50
2019-05-09T05:59:19.291Z,1.40
2019-05-09T06:00:19.287Z,1.40
2019-05-09T06:01:19.244Z,1.80
2019-05-09T06:02:19.253Z,1.40
2019-05-09T06:03:19.285Z,1.50
2019-05-09T06:04:19.235Z,1.30
2019-05-09T06:05:19.219Z,1.40
2019-05-09T06:06:19.217Z,1.60
2019-05-09T06:07:19.214Z,1.10
2019-05-09T06:08:19.180Z,1.50
2019-05-09T06:09:19.282Z,1.40
2019-05-09T06:10:19.186Z,1.30
2019-05-09T06:11:19.145Z,1.20
2019-05-09T06:12:19.158Z,1.20
2019-05-09T06:13:19.122Z,1.30
2019-05-09T06:14:19.115Z,1.30
2019-05-09T06:15:19.099Z,1.20
2019-05-09T06:16:22.058Z,1.40
2019-05-09T06:17:19.136Z,1.30
2019-05-09T06:18:19.091Z,1.40
2019-05-09T06:19:19.075Z,1.40
2019-05-09T06:20:19.056Z,1.30
2019-05-09T06:21:19.066Z,1.40
2019-05-09T06:22:19.083Z,1.20
2019-05-09T06:23:19.070Z,1.30
2019-05-09T06:24:19.075Z,1.10
2019-05-09T06:25:20.622Z,1.30
2019-05-09T06:26:19.081Z,1.20
2019-05-09T06:27:19.047Z,1.20
2019-05-09T06:28:18.994Z,1.10
2019-05-09T06:29:18.977Z,1.10
2019-05-09T06:30:18.960Z,1.20
2019-05-09T06:31:19.016Z,0.90
2019-05-09T06:32:19.040Z,0.90
2019-05-09T06:33:18.950Z,1.10
2019-05-09T06:34:19.112Z,1.00
2019-05-09T06:35:18.933Z,1.00
2019-05-09T06:36:19.037Z,1.00
2019-05-09T06:37:18.944Z,1.00
2019-05-09T06:38:18.948Z,1.10
2019-05-09T06:39:18.898Z,1.00
2019-05-09T06:40:21.390Z,0.90
2019-05-09T06:41:18.858Z,1.00
2019-05-09T06:42:18.857Z,1.00
2019-05-09T06:43:18.852Z,0.90
2019-05-09T06:44:20.699Z,0.80
2019-05-09T06:45:18.818Z,0.90
2019-05-09T06:46:18.809Z,0.90
2019-05-09T06:47:18.857Z,0.90
2019-05-09T06:48:18.789Z,1.00
2019-05-09T06:49:27.083Z,1.00
2019-05-09T06:50:18.782Z,0.90
2019-05-09T06:51:21.194Z,1.00
2019-05-09T06:52:18.742Z,1.10
2019-05-09T06:53:18.728Z,1.00
2019-05-09T06:54:18.726Z,0.90
2019-05-09T06:55:18.698Z,1.00
2019-05-09T06:56:18.709Z,1.00
2019-05-09T06:57:18.883Z,1.00
2019-05-09T06:58:18.724Z,1.10
2019-05-09T06:59:19.117Z,0.80
2019-05-09T07:00:18.674Z,0.90
2019-05-09T07:01:18.645Z,0.90
2019-05-09T07:02:18.663Z,0.90
2019-05-09T07:03:18.640Z,0.90
2019-05-09T07:04:18.669Z,1.00
2019-05-09T07:05:18.640Z,1.10
2019-05-09T07:06:18.642Z,1.00
2019-05-09T07:07:18.600Z,0.80
2019-05-09T07:08:18.611Z,0.90
2019-05-09T07:09:18.596Z,0.90
2019-05-09T07:10:18.561Z,1.00
2019-05-09T07:11:19.213Z,0.90
2019-05-09T07:12:18.552Z,1.00
2019-05-09T07:13:18.553Z,0.90
2019-05-09T07:14:26.681Z,0.80
2019-05-09T07:15:18.550Z,0.80
2019-05-09T07:16:18.784Z,0.80
2019-05-09T07:17:18.767Z,0.90
2019-05-09T07:18:18.492Z,0.90
2019-05-09T07:19:18.485Z,0.80
2019-05-09T07:20:18.456Z,0.80
2019-05-09T07:21:18.992Z,0.80
2019-05-09T07:22:18.632Z,0.80
2019-05-09T07:23:18.411Z,0.80
2019-05-09T07:24:18.563Z,1.00
2019-05-09T07:25:18.689Z,0.90
2019-05-09T07:26:18.402Z,0.70
2019-05-09T07:27:18.383Z,0.90
2019-05-09T07:28:18.437Z,0.80
2019-05-09T07:29:18.391Z,0.80
2019-05-09T07:30:18.569Z,0.90
2019-05-09T07:31:18.348Z,0.80
2019-05-09T07:32:18.340Z,0.90
2019-05-09T07:33:19.199Z,0.80
2019-05-09T07:34:18.524Z,0.80
2019-05-09T07:35:18.709Z,0.80
2019-05-09T07:36:18.887Z,0.80
2019-05-09T07:37:18.651Z,1.00
2019-05-09T07:38:18.285Z,0.90
2019-05-09T07:39:18.349Z,1.00
2019-05-09T07:40:18.361Z,0.70
2019-05-09T07:41:18.246Z,0.90
2019-05-09T07:42:18.341Z,0.90
2019-05-09T07:43:18.248Z,0.80
2019-05-09T07:44:18.449Z,0.90
2019-05-09T07:45:18.207Z,0.90
2019-05-09T07:46:18.222Z,0.80
2019-05-09T07:47:18.190Z,0.90
2019-05-09T07:48:18.202Z,0.80
2019-05-09T07:49:18.175Z,0.80
2019-05-09T07:50:18.943Z,0.80
2019-05-09T07:51:18.196Z,0.90
2019-05-09T07:52:18.635Z,0.90
2019-05-09T07:53:18.137Z,0.80
2019-05-09T07:54:24.731Z,0.80
2019-05-09T07:55:18.249Z,1.00
2019-05-09T07:56:18.682Z,0.90
2019-05-09T07:57:18.339Z,0.90
2019-05-09T07:58:18.802Z,0.80
2019-05-09T07:59:18.214Z,1.00
2019-05-09T08:00:18.415Z,1.00
2019-05-09T08:01:19.017Z,1.10
2019-05-09T08:02:18.017Z,1.00
2019-05-09T08:03:18.174Z,1.00
2019-05-09T08:04:18.358Z,1.20
2019-05-09T08:05:18.022Z,1.00
2019-05-09T08:06:18.447Z,0.90
2019-05-09T08:07:18.015Z,1.00
2019-05-09T08:08:18.609Z,1.00
2019-05-09T08:09:18.653Z,1.00
2019-05-09T08:10:17.954Z,1.10
2019-05-09T08:11:18.149Z,1.10
2019-05-09T08:12:18.084Z,0.90
2019-05-09T08:13:21.189Z,1.30
2019-05-09T08:14:17.918Z,1.20
2019-05-09T08:15:20.314Z,1.30
2019-05-09T08:16:18.635Z,1.30
2019-05-09T08:17:18.211Z,1.30
2019-05-09T08:18:17.863Z,1.20
2019-05-09T08:19:18.170Z,1.30
2019-05-09T08:20:17.845Z,1.40
2019-05-09T08:21:18.212Z,1.60
2019-05-09T08:22:24.580Z,1.50
2019-05-09T08:23:18.082Z,1.30
2019-05-09T08:24:18.298Z,1.40
2019-05-09T08:25:18.308Z,1.80
2019-05-09T08:26:18.863Z,1.60
2019-05-09T08:27:17.792Z,1.40
2019-05-09T08:28:19.995Z,1.70
2019-05-09T08:29:19.962Z,1.70
2019-05-09T08:30:18.082Z,2.50
2019-05-09T08:31:17.917Z,2.10
2019-05-09T08:32:18.142Z,1.70
2019-05-09T08:33:18.434Z,2.30
2019-05-09T08:34:18.672Z,2.10
2019-05-09T08:35:18.306Z,2.30
2019-05-09T08:36:17.999Z,2.20
2019-05-09T08:37:17.702Z,2.60
2019-05-09T08:38:17.957Z,2.20
2019-05-09T08:39:18.394Z,2.30
2019-05-09T08:40:18.339Z,2.30
2019-05-09T08:41:18.611Z,2.20
2019-05-09T08:42:19.928Z,2.50
2019-05-09T08:43:19.749Z,2.70
2019-05-09T08:44:18.651Z,3.00
2019-05-09T08:45:25.258Z,2.80
2019-05-09T08:46:18.202Z,2.90
2019-05-09T08:47:18.457Z,3.20
2019-05-09T08:48:18.388Z,2.90
2019-05-09T08:49:18.257Z,3.10
2019-05-09T08:50:17.687Z,3.10
2019-05-09T08:51:17.997Z,2.90
2019-05-09T08:52:19.782Z,2.70
2019-05-09T08:53:18.795Z,2.80
2019-05-09T08:54:18.417Z,2.90
2019-05-09T08:55:17.562Z,2.60
2019-05-09T08:56:17.869Z,2.80
2019-05-09T08:57:18.243Z,2.90
2019-05-09T08:58:19.642Z,2.80
2019-05-09T08:59:18.325Z,2.40
2019-05-09T09:00:18.899Z,2.80
2019-05-09T09:01:27.600Z,2.30
2019-05-09T09:02:22.029Z,2.70
2019-05-09T09:03:18.514Z,2.60
2019-05-09T09:04:18.961Z,2.30
2019-05-09T09:05:18.639Z,2.40
2019-05-09T09:06:18.373Z,2.30
2019-05-09T09:07:18.925Z,2.40
2019-05-09T09:08:18.376Z,2.20
2019-05-09T09:09:18.006Z,2.60
2019-05-09T09:10:18.701Z,2.50
2019-05-09T09:11:18.731Z,3.10
2019-05-09T09:12:27.157Z,2.60
2019-05-09T09:13:17.590Z,3.00
2019-05-09T09:14:18.502Z,2.10
2019-05-09T09:15:18.027Z,2.60
2019-05-09T09:16:21.545Z,2.90
2019-05-09T09:17:18.680Z,2.50
2019-05-09T09:18:17.910Z,3.00
2019-05-09T09:19:17.930Z,2.60
2019-05-09T09:20:18.158Z,2.60
2019-05-09T09:21:18.370Z,2.70
2019-05-09T09:22:18.006Z,2.60
2019-05-09T09:23:18.085Z,2.40
2019-05-09T09:24:17.689Z,3.00
2019-05-09T09:25:18.330Z,2.60
2019-05-09T09:26:18.329Z,2.50
2019-05-09T09:27:18.182Z,2.40
2019-05-09T09:28:18.283Z,3.00
2019-05-09T09:29:17.847Z,2.60
2019-05-09T09:30:24.514Z,3.80
2019-05-09T09:31:17.981Z,3.50
2019-05-09T09:32:18.975Z,3.80
2019-05-09T09:33:17.609Z,3.10
2019-05-09T09:34:18.134Z,3.20
2019-05-09T09:35:18.709Z,3.30
2019-05-09T09:36:17.868Z,3.30
2019-05-09T09:37:18.536Z,3.50
2019-05-09T09:38:17.729Z,4.60
2019-05-09T09:39:18.478Z,4.10
2019-05-09T09:40:17.731Z,4.60
2019-05-09T09:41:18.136Z,3.70
2019-05-09T09:42:19.831Z,4.20
2019-05-09T09:43:17.624Z,3.90
2019-05-09T09:44:18.227Z,3.30
2019-05-09T09:45:18.444Z,3.00
2019-05-09T09:46:18.278Z,3.50
2019-05-09T09:47:22.782Z,3.60
2019-05-09T09:48:18.097Z,4.30
2019-05-09T09:49:18.092Z,3.80
2019-05-09T09:50:17.725Z,4.60
2019-05-09T09:51:18.650Z,4.00
2019-05-09T09:52:18.737Z,3.70
2019-05-09T09:53:18.411Z,4.30
2019-05-09T09:54:18.786Z,3.50
2019-05-09T09:55:18.466Z,3.60
2019-05-09T09:56:17.800Z,4.00
2019-05-09T09:57:19.002Z,4.40
2019-05-09T09:58:18.995Z,4.10
2019-05-09T09:59:18.897Z,4.30
2019-05-09T10:00:18.067Z,3.90
2019-05-09T10:01:18.137Z,4.00
2019-05-09T10:02:16.778Z,3.80
2019-05-09T10:03:18.593Z,4.60
2019-05-09T10:04:23.574Z,4.60
2019-05-09T10:05:18.332Z,4.60
2019-05-09T10:06:16.803Z,4.00
2019-05-09T10:07:18.855Z,4.40
2019-05-09T10:08:18.121Z,4.30
2019-05-09T10:09:17.486Z,4.40
2019-05-09T10:10:18.434Z,4.20
2019-05-09T10:11:17.975Z,4.00
2019-05-09T10:12:18.196Z,4.30
2019-05-09T10:13:18.589Z,4.10
2019-05-09T10:14:18.582Z,4.40
2019-05-09T10:15:18.738Z,3.80
2019-05-09T10:16:26.488Z,4.60
2019-05-09T10:17:17.918Z,4.30
2019-05-09T10:18:18.281Z,3.80
2019-05-09T10:19:18.415Z,3.90
2019-05-09T10:20:18.129Z,3.90
2019-05-09T10:21:16.613Z,3.90
2019-05-09T10:22:23.509Z,4.40
2019-05-09T10:23:18.946Z,4.70
2019-05-09T10:24:17.479Z,4.60
2019-05-09T10:25:18.321Z,3.70
2019-05-09T10:26:17.800Z,4.10
2019-05-09T10:27:18.484Z,4.60
2019-05-09T10:28:21.481Z,4.70
2019-05-09T10:29:17.709Z,4.80
2019-05-09T10:30:18.059Z,4.00
2019-05-09T10:31:16.521Z,4.60
2019-05-09T10:32:18.223Z,4.40
2019-05-09T10:33:17.526Z,4.30
2019-05-09T10:34:17.738Z,4.70
2019-05-09T10:35:17.696Z,4.60
2019-05-09T10:36:16.418Z,4.50
2019-05-09T10:37:18.321Z,4.00
2019-05-09T10:38:18.348Z,4.40
2019-05-09T10:39:18.610Z,4.90
2019-05-09T10:40:16.408Z,5.00
2019-05-09T10:41:16.442Z,4.90
2019-05-09T10:42:18.649Z,5.10
2019-05-09T10:43:30.688Z,5.20
2019-05-09T10:44:18.001Z,5.30
2019-05-09T10:45:18.054Z,5.60
2019-05-09T10:46:19.024Z,5.60
2019-05-09T10:47:16.323Z,5.30
2019-05-09T10:48:23.068Z,6.20
2019-05-09T10:49:16.325Z,5.70
2019-05-09T10:50:18.406Z,5.10
2019-05-09T10:51:18.409Z,5.50
2019-05-09T10:52:18.184Z,5.20
2019-05-09T10:53:17.972Z,4.80
2019-05-09T10:54:18.374Z,4.70
2019-05-09T10:55:17.934Z,4.80
2019-05-09T10:56:18.653Z,4.80
2019-05-09T10:57:16.219Z,5.40
2019-05-09T10:58:16.245Z,5.60
2019-05-09T10:59:18.200Z,5.10
2019-05-09T11:00:18.303Z,5.00
2019-05-09T11:01:18.236Z,5.20
2019-05-09T11:02:17.502Z,4.50
2019-05-09T11:03:18.034Z,5.50
2019-05-09T11:04:18.025Z,4.90
2019-05-09T11:05:18.283Z,4.90
2019-05-09T11:06:18.358Z,5.10
2019-05-09T11:07:18.143Z,5.20
2019-05-09T11:08:18.347Z,5.10
2019-05-09T11:09:18.280Z,5.60
2019-05-09T11:10:25.989Z,5.30
2019-05-09T11:11:18.268Z,5.10
2019-05-09T11:12:17.891Z,5.30
2019-05-09T11:13:18.160Z,5.90
2019-05-09T11:14:31.590Z,5.60
2019-05-09T11:15:17.757Z,5.80
2019-05-09T11:16:18.069Z,5.30
2019-05-09T11:17:19.340Z,5.10
2019-05-09T11:18:18.379Z,5.00
2019-05-09T11:19:18.146Z,4.80
2019-05-09T11:20:19.082Z,5.70
2019-05-09T11:21:18.853Z,5.40
2019-05-09T11:22:18.166Z,5.50
2019-05-09T11:23:15.969Z,4.70
2019-05-09T11:24:18.531Z,5.70
2019-05-09T11:25:16.012Z,5.70
2019-05-09T11:26:17.941Z,6.30
2019-05-09T11:27:18.436Z,5.40
2019-05-09T11:28:17.829Z,6.30
2019-05-09T11:29:18.581Z,6.00
2019-05-09T11:30:17.616Z,6.50
2019-05-09T11:31:17.974Z,6.90
2019-05-09T11:32:17.800Z,7.60
2019-05-09T11:33:18.174Z,7.20
2019-05-09T11:34:15.896Z,7.40
2019-05-09T11:35:17.656Z,7.50
2019-05-09T11:36:20.807Z,7.60
2019-05-09T11:37:15.839Z,8.00
2019-05-09T11:38:29.192Z,8.60
2019-05-09T11:39:25.428Z,8.10
2019-05-09T11:40:15.816Z,8.40
2019-05-09T11:41:18.866Z,10.70
2019-05-09T11:42:17.716Z,10.10
2019-05-09T11:43:17.963Z,11.40
2019-05-09T11:44:18.287Z,11.30
2019-05-09T11:45:17.720Z,10.80
2019-05-09T11:46:17.732Z,10.70
2019-05-09T11:47:28.557Z,10.50
2019-05-09T11:48:15.732Z,10.50
2019-05-09T11:49:17.853Z,11.30
2019-05-09T11:50:19.823Z,11.20
2019-05-09T11:51:19.104Z,11.00
2019-05-09T11:52:18.195Z,11.60
2019-05-09T11:53:17.590Z,11.00
2019-05-09T11:54:17.253Z,10.50
2019-05-09T11:55:28.659Z,11.10
2019-05-09T11:56:17.705Z,10.80
2019-05-09T11:57:15.671Z,11.90
2019-05-09T11:58:17.975Z,11.00
2019-05-09T11:59:15.637Z,11.20
2019-05-09T12:00:17.793Z,11.60
2019-05-09T12:01:15.589Z,11.00
2019-05-09T12:02:17.860Z,9.70
2019-05-09T12:03:15.630Z,10.60
2019-05-09T12:04:15.581Z,10.00
2019-05-09T12:05:19.124Z,10.40
2019-05-09T12:06:16.223Z,10.90
2019-05-09T12:07:17.680Z,10.80
2019-05-09T12:08:17.594Z,10.30
2019-05-09T12:09:15.570Z,9.40
2019-05-09T12:10:15.542Z,8.20
2019-05-09T12:11:17.839Z,8.90
2019-05-09T12:12:15.493Z,8.90
2019-05-09T12:13:15.512Z,8.80
2019-05-09T12:14:15.482Z,8.90
2019-05-09T12:15:15.488Z,8.80
2019-05-09T12:16:18.100Z,8.30
2019-05-09T12:17:15.467Z,8.20
2019-05-09T12:18:15.446Z,8.00
2019-05-09T12:19:17.761Z,8.20
2019-05-09T12:20:15.414Z,8.30
2019-05-09T12:21:15.413Z,8.00
2019-05-09T12:22:15.414Z,8.20
2019-05-09T12:23:15.401Z,8.20
2019-05-09T12:24:15.376Z,8.30
2019-05-09T12:25:15.380Z,8.40
2019-05-09T12:26:17.758Z,7.70
2019-05-09T12:27:15.382Z,8.50
2019-05-09T12:28:15.346Z,8.80
2019-05-09T12:29:15.382Z,7.50
2019-05-09T12:30:15.355Z,7.40
2019-05-09T12:31:17.816Z,7.70
2019-05-09T12:32:15.310Z,7.80
2019-05-09T12:33:15.312Z,9.00
2019-05-09T12:34:18.926Z,8.60
2019-05-09T12:35:15.307Z,8.30
2019-05-09T12:36:15.303Z,8.30
2019-05-09T12:37:15.282Z,7.40
2019-05-09T12:38:17.886Z,7.90
2019-05-09T12:39:15.263Z,7.40
2019-05-09T12:40:15.246Z,7.70
2019-05-09T12:41:15.248Z,7.40
2019-05-09T12:42:15.262Z,7.60
2019-05-09T12:43:15.222Z,8.70
2019-05-09T12:44:15.264Z,7.90
2019-05-09T12:45:15.246Z,8.70
2019-05-09T12:46:15.191Z,9.20
2019-05-09T12:47:15.193Z,8.80
2019-05-09T12:48:15.721Z,8.70
2019-05-09T12:49:15.184Z,8.00
2019-05-09T12:50:15.139Z,8.70
2019-05-09T12:51:15.167Z,9.40
2019-05-09T12:52:15.152Z,10.30
2019-05-09T12:53:15.135Z,9.10
2019-05-09T12:54:15.143Z,8.30
2019-05-09T12:55:15.144Z,7.40
2019-05-09T12:56:15.121Z,7.80
2019-05-09T12:57:15.119Z,7.10
2019-05-09T12:58:17.732Z,7.80
2019-05-09T12:59:15.114Z,7.70
2019-05-09T13:00:15.093Z,8.40
2019-05-09T13:01:15.067Z,7.80
2019-05-09T13:02:17.637Z,8.00
2019-05-09T13:03:15.046Z,8.00
2019-05-09T13:04:15.037Z,7.70
2019-05-09T13:05:15.053Z,7.70
2019-05-09T13:06:19.511Z,8.50
2019-05-09T13:07:15.020Z,9.30
2019-05-09T13:08:15.025Z,8.30
2019-05-09T13:09:17.604Z,9.60
2019-05-09T13:10:15.005Z,9.40
2019-05-09T13:11:15.017Z,8.90
2019-05-09T13:12:17.863Z,8.60
2019-05-09T13:13:14.968Z,8.80
2019-05-09T13:14:14.983Z,9.30
2019-05-09T13:15:14.955Z,9.50
2019-05-09T13:16:14.968Z,9.60
2019-05-09T13:17:15.171Z,9.30